Terminal Aerodrome Forecast
Issued by NWS Wilmington, OH

Current Version | Previous Version | Graphics & Text | Print | Product List | Glossary On
Versions: 1 2 3 4 5 6 7 8 9 10 11 12 13 14 15 16 17 18 19 20 21 22
000
FTUS41 KILN 261242 AAC
TAFILN
TAF AMD
KILN 261242Z 2613/2712 28016G29KT P6SM VCTS BKN016CB
      TEMPO 2613/2617 4SM -TSRA BKN011CB OVC025
     FM261700 29012G20KT P6SM BKN025
     FM262000 28012G18KT P6SM SKC
     FM270000 24005KT P6SM SKC=

USA.gov is the U.S. government's official web portal to all federal, state and local government web resources and services.